sensor_id;sensor_type;location;lat;lon;timestamp;temperature;humidity
11569;DHT22;5840;46.894;15.542;2024-03-08T00:01:03;2.50;99.90
11569;DHT22;5840;46.894;15.542;2024-03-08T00:03:29;2.50;99.90
11569;DHT22;5840;46.894;15.542;2024-03-08T00:05:56;2.50;99.90
11569;DHT22;5840;46.894;15.542;2024-03-08T00:08:22;2.50;99.90
11569;DHT22;5840;46.894;15.542;2024-03-08T00:10:49;2.50;99.90
11569;DHT22;5840;46.894;15.542;2024-03-08T00:13:15;2.50;99.90
11569;DHT22;5840;46.894;15.542;2024-03-08T00:15:41;2.50;99.90
11569;DHT22;5840;46.894;15.542;2024-03-08T00:18:08;2.50;99.90
11569;DHT22;5840;46.894;15.542;2024-03-08T00:28:04;2.50;99.90
11569;DHT22;5840;46.894;15.542;2024-03-08T00:30:31;2.50;99.90
11569;DHT22;5840;46.894;15.542;2024-03-08T00:32:58;2.50;99.90
11569;DHT22;5840;46.894;15.542;2024-03-08T00:35:25;2.50;99.90
11569;DHT22;5840;46.894;15.542;2024-03-08T00:37:51;2.50;99.90
11569;DHT22;5840;46.894;15.542;2024-03-08T00:40:18;2.50;99.90
11569;DHT22;5840;46.894;15.542;2024-03-08T00:42:44;2.50;99.90
11569;DHT22;5840;46.894;15.542;2024-03-08T00:45:11;2.50;99.90
11569;DHT22;5840;46.894;15.542;2024-03-08T00:52:40;2.50;99.90
11569;DHT22;5840;46.894;15.542;2024-03-08T00:55:07;2.50;99.90
11569;DHT22;5840;46.894;15.542;2024-03-08T00:57:36;2.50;99.90
11569;DHT22;5840;46.894;15.542;2024-03-08T01:00:03;2.50;99.90
11569;DHT22;5840;46.894;15.542;2024-03-08T01:02:29;2.50;99.90
11569;DHT22;5840;46.894;15.542;2024-03-08T01:04:56;2.40;99.90
11569;DHT22;5840;46.894;15.542;2024-03-08T01:07:22;2.50;99.90
11569;DHT22;5840;46.894;15.542;2024-03-08T01:09:49;2.50;99.90
11569;DHT22;5840;46.894;15.542;2024-03-08T01:19:43;2.50;99.90
11569;DHT22;5840;46.894;15.542;2024-03-08T01:22:10;2.50;99.90
11569;DHT22;5840;46.894;15.542;2024-03-08T01:24:36;2.60;99.90
11569;DHT22;5840;46.894;15.542;2024-03-08T01:27:03;2.60;99.90
11569;DHT22;5840;46.894;15.542;2024-03-08T01:29:29;2.50;99.90
11569;DHT22;5840;46.894;15.542;2024-03-08T01:31:55;2.50;99.90
11569;DHT22;5840;46.894;15.542;2024-03-08T01:34:21;2.60;99.90
11569;DHT22;5840;46.894;15.542;2024-03-08T01:36:49;2.60;99.90
11569;DHT22;5840;46.894;15.542;2024-03-08T01:44:14;2.60;99.90
11569;DHT22;5840;46.894;15.542;2024-03-08T01:46:43;2.60;99.90
11569;DHT22;5840;46.894;15.542;2024-03-08T01:49:11;2.60;99.90
11569;DHT22;5840;46.894;15.542;2024-03-08T01:51:37;2.60;99.90
11569;DHT22;5840;46.894;15.542;2024-03-08T01:54:06;2.60;99.90
11569;DHT22;5840;46.894;15.542;2024-03-08T01:56:32;2.60;99.90
11569;DHT22;5840;46.894;15.542;2024-03-08T01:58:59;2.60;99.90
11569;DHT22;5840;46.894;15.542;2024-03-08T02:01:27;2.60;99.90
11569;DHT22;5840;46.894;15.542;2024-03-08T02:08:58;2.60;99.90
11569;DHT22;5840;46.894;15.542;2024-03-08T02:11:24;2.60;99.90
11569;DHT22;5840;46.894;15.542;2024-03-08T02:13:50;2.60;99.90
11569;DHT22;5840;46.894;15.542;2024-03-08T02:16:20;2.60;99.90
11569;DHT22;5840;46.894;15.542;2024-03-08T02:18:47;2.60;99.90
11569;DHT22;5840;46.894;15.542;2024-03-08T02:21:15;2.60;99.90
11569;DHT22;5840;46.894;15.542;2024-03-08T02:23:43;2.70;99.90
11569;DHT22;5840;46.894;15.542;2024-03-08T02:26:10;2.70;99.90
11569;DHT22;5840;46.894;15.542;2024-03-08T02:33:40;2.70;99.90
11569;DHT22;5840;46.894;15.542;2024-03-08T02:36:06;2.70;99.90
11569;DHT22;5840;46.894;15.542;2024-03-08T02:38:33;2.70;99.90
11569;DHT22;5840;46.894;15.542;2024-03-08T02:40:59;2.70;99.90
11569;DHT22;5840;46.894;15.542;2024-03-08T02:43:25;2.80;99.90
11569;DHT22;5840;46.894;15.542;2024-03-08T02:45:51;2.70;99.90
11569;DHT22;5840;46.894;15.542;2024-03-08T02:48:18;2.70;99.90
11569;DHT22;5840;46.894;15.542;2024-03-08T02:50:46;2.70;99.90
11569;DHT22;5840;46.894;15.542;2024-03-08T03:00:40;2.70;99.90
11569;DHT22;5840;46.894;15.542;2024-03-08T03:03:06;2.70;99.90
11569;DHT22;5840;46.894;15.542;2024-03-08T03:05:33;2.70;99.90
11569;DHT22;5840;46.894;15.542;2024-03-08T03:07:59;2.70;99.90
11569;DHT22;5840;46.894;15.542;2024-03-08T03:10:26;2.70;99.90
11569;DHT22;5840;46.894;15.542;2024-03-08T03:12:52;2.70;99.90
11569;DHT22;5840;46.894;15.542;2024-03-08T03:15:18;2.70;99.90
11569;DHT22;5840;46.894;15.542;2024-03-08T03:17:47;2.60;99.90
11569;DHT22;5840;46.894;15.542;2024-03-08T03:25:16;2.60;99.90
11569;DHT22;5840;46.894;15.542;2024-03-08T03:27:49;2.50;99.90
11569;DHT22;5840;46.894;15.542;2024-03-08T03:30:15;2.50;99.90
11569;DHT22;5840;46.894;15.542;2024-03-08T03:32:48;2.50;99.90
11569;DHT22;5840;46.894;15.542;2024-03-08T03:35:16;2.40;99.90
11569;DHT22;5840;46.894;15.542;2024-03-08T03:37:42;2.40;99.90
11569;DHT22;5840;46.894;15.542;2024-03-08T03:40:11;2.40;99.90
11569;DHT22;5840;46.894;15.542;2024-03-08T03:45:56;2.40;99.90
11569;DHT22;5840;46.894;15.542;2024-03-08T03:48:22;2.30;99.90
11569;DHT22;5840;46.894;15.542;2024-03-08T03:50:48;2.20;99.90
11569;DHT22;5840;46.894;15.542;2024-03-08T03:53:15;2.10;99.90
11569;DHT22;5840;46.894;15.542;2024-03-08T03:55:42;2.10;99.90
11569;DHT22;5840;46.894;15.542;2024-03-08T03:58:08;2.00;99.90
11569;DHT22;5840;46.894;15.542;2024-03-08T04:00:35;2.00;99.90
11569;DHT22;5840;46.894;15.542;2024-03-08T04:03:02;1.90;99.90
11569;DHT22;5840;46.894;15.542;2024-03-08T04:12:53;1.90;99.90
11569;DHT22;5840;46.894;15.542;2024-03-08T04:15:19;1.90;99.90
11569;DHT22;5840;46.894;15.542;2024-03-08T04:17:46;1.80;99.90
11569;DHT22;5840;46.894;15.542;2024-03-08T04:20:12;1.80;99.90
11569;DHT22;5840;46.894;15.542;2024-03-08T04:22:40;1.80;99.90
11569;DHT22;5840;46.894;15.542;2024-03-08T04:25:07;1.80;99.90
11569;DHT22;5840;46.894;15.542;2024-03-08T04:27:33;1.70;99.90
11569;DHT22;5840;46.894;15.542;2024-03-08T04:30:00;1.60;99.90
11569;DHT22;5840;46.894;15.542;2024-03-08T04:39:56;1.60;99.90
11569;DHT22;5840;46.894;15.542;2024-03-08T04:42:22;1.50;99.90
11569;DHT22;5840;46.894;15.542;2024-03-08T04:44:48;1.50;99.90
11569;DHT22;5840;46.894;15.542;2024-03-08T04:47:15;1.40;99.90
11569;DHT22;5840;46.894;15.542;2024-03-08T04:49:43;1.50;99.90
11569;DHT22;5840;46.894;15.542;2024-03-08T04:52:09;1.40;99.90
11569;DHT22;5840;46.894;15.542;2024-03-08T04:54:35;1.40;99.90
11569;DHT22;5840;46.894;15.542;2024-03-08T04:57:03;1.40;99.90
11569;DHT22;5840;46.894;15.542;2024-03-08T05:04:33;1.30;99.90
11569;DHT22;5840;46.894;15.542;2024-03-08T05:06:59;1.30;99.90
11569;DHT22;5840;46.894;15.542;2024-03-08T05:09:26;1.30;99.90
11569;DHT22;5840;46.894;15.542;2024-03-08T05:11:54;1.30;99.90
11569;DHT22;5840;46.894;15.542;2024-03-08T05:14:21;1.20;99.90
11569;DHT22;5840;46.894;15.542;2024-03-08T05:16:47;1.20;99.90
11569;DHT22;5840;46.894;15.542;2024-03-08T05:19:14;1.30;99.90
11569;DHT22;5840;46.894;15.542;2024-03-08T05:21:43;1.30;99.90
11569;DHT22;5840;46.894;15.542;2024-03-08T05:31:45;1.40;99.90
11569;DHT22;5840;46.894;15.542;2024-03-08T05:34:12;1.40;99.90
11569;DHT22;5840;46.894;15.542;2024-03-08T05:36:40;1.40;99.90
11569;DHT22;5840;46.894;15.542;2024-03-08T05:39:06;1.40;99.90
11569;DHT22;5840;46.894;15.542;2024-03-08T05:41:32;1.30;99.90
11569;DHT22;5840;46.894;15.542;2024-03-08T05:43:59;1.30;99.90
11569;DHT22;5840;46.894;15.542;2024-03-08T05:46:25;1.30;99.90
11569;DHT22;5840;46.894;15.542;2024-03-08T05:48:52;1.30;99.90
11569;DHT22;5840;46.894;15.542;2024-03-08T05:56:23;1.30;99.90
11569;DHT22;5840;46.894;15.542;2024-03-08T05:58:49;1.30;99.90
11569;DHT22;5840;46.894;15.542;2024-03-08T06:01:16;1.30;99.90
11569;DHT22;5840;46.894;15.542;2024-03-08T06:03:42;1.40;99.90
11569;DHT22;5840;46.894;15.542;2024-03-08T06:06:11;1.30;99.90
11569;DHT22;5840;46.894;15.542;2024-03-08T06:08:37;1.40;99.90
11569;DHT22;5840;46.894;15.542;2024-03-08T06:11:04;1.40;99.90
11569;DHT22;5840;46.894;15.542;2024-03-08T06:13:32;1.40;99.90
11569;DHT22;5840;46.894;15.542;2024-03-08T06:23:28;1.40;99.90
11569;DHT22;5840;46.894;15.542;2024-03-08T06:25:54;1.40;99.90
11569;DHT22;5840;46.894;15.542;2024-03-08T06:28:20;1.40;99.90
11569;DHT22;5840;46.894;15.542;2024-03-08T06:30:46;1.30;99.90
11569;DHT22;5840;46.894;15.542;2024-03-08T06:33:12;1.30;99.90
11569;DHT22;5840;46.894;15.542;2024-03-08T06:35:39;1.30;99.90
11569;DHT22;5840;46.894;15.542;2024-03-08T06:38:05;1.30;99.90
11569;DHT22;5840;46.894;15.542;2024-03-08T06:40:32;1.30;99.90
11569;DHT22;5840;46.894;15.542;2024-03-08T06:48:02;1.40;99.90
11569;DHT22;5840;46.894;15.542;2024-03-08T06:50:28;1.40;99.90
11569;DHT22;5840;46.894;15.542;2024-03-08T06:52:56;1.40;99.90
11569;DHT22;5840;46.894;15.542;2024-03-08T06:55:22;1.40;99.90
11569;DHT22;5840;46.894;15.542;2024-03-08T06:57:48;1.40;99.90
11569;DHT22;5840;46.894;15.542;2024-03-08T07:00:15;1.40;99.90
11569;DHT22;5840;46.894;15.542;2024-03-08T07:02:44;1.40;99.90
11569;DHT22;5840;46.894;15.542;2024-03-08T07:05:12;1.50;99.90
11569;DHT22;5840;46.894;15.542;2024-03-08T07:07:51;1.50;99.90
11569;DHT22;5840;46.894;15.542;2024-03-08T07:10:18;1.60;99.90
11569;DHT22;5840;46.894;15.542;2024-03-08T07:12:44;1.60;99.90
11569;DHT22;5840;46.894;15.542;2024-03-08T07:15:12;1.70;99.90
11569;DHT22;5840;46.894;15.542;2024-03-08T07:17:39;1.70;99.90
11569;DHT22;5840;46.894;15.542;2024-03-08T07:20:06;1.70;99.90
11569;DHT22;5840;46.894;15.542;2024-03-08T07:22:37;1.70;99.90
11569;DHT22;5840;46.894;15.542;2024-03-08T07:25:06;1.80;99.90
11569;DHT22;5840;46.894;15.542;2024-03-08T07:32:48;1.70;99.90
11569;DHT22;5840;46.894;15.542;2024-03-08T07:35:14;1.70;99.90
11569;DHT22;5840;46.894;15.542;2024-03-08T07:37:44;1.70;99.90
11569;DHT22;5840;46.894;15.542;2024-03-08T07:40:11;1.70;99.90
11569;DHT22;5840;46.894;15.542;2024-03-08T07:42:39;1.70;99.90
11569;DHT22;5840;46.894;15.542;2024-03-08T07:45:06;1.70;99.90
11569;DHT22;5840;46.894;15.542;2024-03-08T07:47:33;1.80;99.90
11569;DHT22;5840;46.894;15.542;2024-03-08T07:50:03;1.80;99.90
11569;DHT22;5840;46.894;15.542;2024-03-08T07:57:33;1.90;99.90
11569;DHT22;5840;46.894;15.542;2024-03-08T07:59:59;1.80;99.90
11569;DHT22;5840;46.894;15.542;2024-03-08T08:02:26;1.90;99.90
11569;DHT22;5840;46.894;15.542;2024-03-08T08:04:52;1.90;99.90
11569;DHT22;5840;46.894;15.542;2024-03-08T08:07:19;1.90;99.90
11569;DHT22;5840;46.894;15.542;2024-03-08T08:09:45;1.90;99.90
11569;DHT22;5840;46.894;15.542;2024-03-08T08:12:12;1.90;99.90
11569;DHT22;5840;46.894;15.542;2024-03-08T08:14:39;2.00;99.90
11569;DHT22;5840;46.894;15.542;2024-03-08T08:24:35;2.10;99.90
11569;DHT22;5840;46.894;15.542;2024-03-08T08:27:02;2.30;99.90
11569;DHT22;5840;46.894;15.542;2024-03-08T08:29:28;2.40;99.90
11569;DHT22;5840;46.894;15.542;2024-03-08T08:31:57;2.60;99.90
11569;DHT22;5840;46.894;15.542;2024-03-08T08:34:24;2.70;99.90
11569;DHT22;5840;46.894;15.542;2024-03-08T08:36:51;2.90;99.90
11569;DHT22;5840;46.894;15.542;2024-03-08T08:39:18;3.10;99.90
11569;DHT22;5840;46.894;15.542;2024-03-08T08:41:45;3.30;99.90
11569;DHT22;5840;46.894;15.542;2024-03-08T08:49:15;3.40;99.90
11569;DHT22;5840;46.894;15.542;2024-03-08T08:51:49;3.60;99.90
11569;DHT22;5840;46.894;15.542;2024-03-08T08:54:15;3.70;99.90
11569;DHT22;5840;46.894;15.542;2024-03-08T08:56:42;3.80;99.90
11569;DHT22;5840;46.894;15.542;2024-03-08T08:59:09;3.90;99.90
11569;DHT22;5840;46.894;15.542;2024-03-08T09:01:39;3.80;99.90
11569;DHT22;5840;46.894;15.542;2024-03-08T09:04:05;3.80;99.90
11569;DHT22;5840;46.894;15.542;2024-03-08T09:14:32;3.70;99.90
11569;DHT22;5840;46.894;15.542;2024-03-08T09:16:59;3.90;99.90
11569;DHT22;5840;46.894;15.542;2024-03-08T09:19:25;3.80;99.90
11569;DHT22;5840;46.894;15.542;2024-03-08T09:21:51;3.80;99.90
11569;DHT22;5840;46.894;15.542;2024-03-08T09:24:17;3.90;99.90
11569;DHT22;5840;46.894;15.542;2024-03-08T09:26:44;3.90;99.90
11569;DHT22;5840;46.894;15.542;2024-03-08T09:29:10;3.90;99.90
11569;DHT22;5840;46.894;15.542;2024-03-08T09:31:37;4.00;99.90
11569;DHT22;5840;46.894;15.542;2024-03-08T09:39:07;4.00;99.90
11569;DHT22;5840;46.894;15.542;2024-03-08T09:41:33;4.20;99.90
11569;DHT22;5840;46.894;15.542;2024-03-08T09:43:59;4.20;99.90
11569;DHT22;5840;46.894;15.542;2024-03-08T09:46:26;4.30;99.90
11569;DHT22;5840;46.894;15.542;2024-03-08T09:48:53;4.40;99.90
11569;DHT22;5840;46.894;15.542;2024-03-08T09:51:21;4.50;99.90
11569;DHT22;5840;46.894;15.542;2024-03-08T09:53:49;4.60;99.90
11569;DHT22;5840;46.894;15.542;2024-03-08T09:56:16;4.70;99.90
11569;DHT22;5840;46.894;15.542;2024-03-08T10:03:47;5.10;99.90
11569;DHT22;5840;46.894;15.542;2024-03-08T10:06:14;5.10;99.90
11569;DHT22;5840;46.894;15.542;2024-03-08T10:08:41;5.20;99.90
11569;DHT22;5840;46.894;15.542;2024-03-08T10:11:07;5.20;99.90
11569;DHT22;5840;46.894;15.542;2024-03-08T10:13:33;5.30;99.90
11569;DHT22;5840;46.894;15.542;2024-03-08T10:16:00;5.40;99.90
11569;DHT22;5840;46.894;15.542;2024-03-08T10:18:26;5.40;99.90
11569;DHT22;5840;46.894;15.542;2024-03-08T10:21:03;5.40;99.90
11569;DHT22;5840;46.894;15.542;2024-03-08T10:28:34;5.50;99.90
11569;DHT22;5840;46.894;15.542;2024-03-08T10:31:00;5.70;99.90
11569;DHT22;5840;46.894;15.542;2024-03-08T10:33:26;5.80;99.90
11569;DHT22;5840;46.894;15.542;2024-03-08T10:35:53;6.00;99.90
11569;DHT22;5840;46.894;15.542;2024-03-08T10:38:21;6.10;99.90
11569;DHT22;5840;46.894;15.542;2024-03-08T10:40:48;6.40;99.90
11569;DHT22;5840;46.894;15.542;2024-03-08T10:43:23;6.50;99.90
11569;DHT22;5840;46.894;15.542;2024-03-08T10:45:58;6.50;99.90
11569;DHT22;5840;46.894;15.542;2024-03-08T10:53:34;6.50;99.90
11569;DHT22;5840;46.894;15.542;2024-03-08T10:56:02;6.50;99.90
11569;DHT22;5840;46.894;15.542;2024-03-08T10:58:29;6.50;99.90
11569;DHT22;5840;46.894;15.542;2024-03-08T11:00:57;6.60;99.90
11569;DHT22;5840;46.894;15.542;2024-03-08T11:03:47;6.70;99.90
11569;DHT22;5840;46.894;15.542;2024-03-08T11:06:17;6.70;99.90
11569;DHT22;5840;46.894;15.542;2024-03-08T11:08:46;6.80;99.90
11569;DHT22;5840;46.894;15.542;2024-03-08T11:11:26;6.70;99.90
11569;DHT22;5840;46.894;15.542;2024-03-08T11:19:26;6.90;99.90
11569;DHT22;5840;46.894;15.542;2024-03-08T11:22:01;7.20;99.90
11569;DHT22;5840;46.894;15.542;2024-03-08T11:24:28;7.60;99.90
11569;DHT22;5840;46.894;15.542;2024-03-08T11:27:03;8.20;99.90
11569;DHT22;5840;46.894;15.542;2024-03-08T11:29:34;8.70;99.90
11569;DHT22;5840;46.894;15.542;2024-03-08T11:32:04;9.10;99.90
11569;DHT22;5840;46.894;15.542;2024-03-08T11:34:32;9.40;99.90
11569;DHT22;5840;46.894;15.542;2024-03-08T11:40:46;9.60;99.90
11569;DHT22;5840;46.894;15.542;2024-03-08T11:43:16;10.00;99.90
11569;DHT22;5840;46.894;15.542;2024-03-08T11:45:42;9.60;99.90
11569;DHT22;5840;46.894;15.542;2024-03-08T11:48:08;9.40;99.90
11569;DHT22;5840;46.894;15.542;2024-03-08T11:50:34;9.00;99.90
11569;DHT22;5840;46.894;15.542;2024-03-08T11:53:02;8.50;99.90
11569;DHT22;5840;46.894;15.542;2024-03-08T11:55:28;8.20;99.90
11569;DHT22;5840;46.894;15.542;2024-03-08T11:58:04;8.00;99.90
11569;DHT22;5840;46.894;15.542;2024-03-08T12:05:40;7.30;99.90
11569;DHT22;5840;46.894;15.542;2024-03-08T12:08:07;7.20;99.90
11569;DHT22;5840;46.894;15.542;2024-03-08T12:10:38;7.10;99.90
11569;DHT22;5840;46.894;15.542;2024-03-08T12:13:05;7.20;99.90
11569;DHT22;5840;46.894;15.542;2024-03-08T12:15:39;7.40;99.90
11569;DHT22;5840;46.894;15.542;2024-03-08T12:18:06;7.90;99.90
11569;DHT22;5840;46.894;15.542;2024-03-08T12:20:33;8.20;99.90
11569;DHT22;5840;46.894;15.542;2024-03-08T12:25:37;8.40;99.90
11569;DHT22;5840;46.894;15.542;2024-03-08T12:28:07;8.50;99.90
11569;DHT22;5840;46.894;15.542;2024-03-08T12:30:45;8.30;99.90
11569;DHT22;5840;46.894;15.542;2024-03-08T12:33:12;8.00;99.90
11569;DHT22;5840;46.894;15.542;2024-03-08T12:35:38;7.80;99.90
11569;DHT22;5840;46.894;15.542;2024-03-08T12:38:05;7.80;99.90
11569;DHT22;5840;46.894;15.542;2024-03-08T12:40:34;8.30;99.90
11569;DHT22;5840;46.894;15.542;2024-03-08T12:43:02;8.80;99.90
11569;DHT22;5840;46.894;15.542;2024-03-08T12:52:52;9.40;99.90
11569;DHT22;5840;46.894;15.542;2024-03-08T12:55:19;8.70;99.90
11569;DHT22;5840;46.894;15.542;2024-03-08T12:57:45;8.60;99.90
11569;DHT22;5840;46.894;15.542;2024-03-08T13:00:13;8.50;99.90
11569;DHT22;5840;46.894;15.542;2024-03-08T13:02:44;8.40;99.90
11569;DHT22;5840;46.894;15.542;2024-03-08T13:05:11;8.00;99.90
11569;DHT22;5840;46.894;15.542;2024-03-08T13:07:39;7.80;99.90
11569;DHT22;5840;46.894;15.542;2024-03-08T13:10:09;7.60;99.90
11569;DHT22;5840;46.894;15.542;2024-03-08T13:20:09;7.10;99.90
11569;DHT22;5840;46.894;15.542;2024-03-08T13:22:42;6.90;99.90
11569;DHT22;5840;46.894;15.542;2024-03-08T13:25:08;6.90;99.90
11569;DHT22;5840;46.894;15.542;2024-03-08T13:27:38;6.90;99.90
11569;DHT22;5840;46.894;15.542;2024-03-08T13:30:07;6.70;99.90
11569;DHT22;5840;46.894;15.542;2024-03-08T13:32:38;6.70;99.90
11569;DHT22;5840;46.894;15.542;2024-03-08T13:35:05;6.60;99.90
11569;DHT22;5840;46.894;15.542;2024-03-08T13:37:39;6.50;99.90
11569;DHT22;5840;46.894;15.542;2024-03-08T13:45:22;6.50;99.90
11569;DHT22;5840;46.894;15.542;2024-03-08T13:47:49;6.60;99.90
11569;DHT22;5840;46.894;15.542;2024-03-08T13:50:17;6.70;99.90
11569;DHT22;5840;46.894;15.542;2024-03-08T13:52:46;6.70;99.90
11569;DHT22;5840;46.894;15.542;2024-03-08T13:55:15;6.90;99.90
11569;DHT22;5840;46.894;15.542;2024-03-08T13:57:41;6.90;99.90
11569;DHT22;5840;46.894;15.542;2024-03-08T14:00:08;7.00;99.90
11569;DHT22;5840;46.894;15.542;2024-03-08T14:02:35;7.00;99.90
11569;DHT22;5840;46.894;15.542;2024-03-08T14:10:05;6.80;99.90
11569;DHT22;5840;46.894;15.542;2024-03-08T14:12:32;6.60;99.90
11569;DHT22;5840;46.894;15.542;2024-03-08T14:14:59;6.50;99.90
11569;DHT22;5840;46.894;15.542;2024-03-08T14:17:25;6.40;99.90
11569;DHT22;5840;46.894;15.542;2024-03-08T14:19:52;6.30;99.90
11569;DHT22;5840;46.894;15.542;2024-03-08T14:22:18;6.40;99.90
11569;DHT22;5840;46.894;15.542;2024-03-08T14:24:45;6.40;99.90
11569;DHT22;5840;46.894;15.542;2024-03-08T14:27:12;6.40;99.90
11569;DHT22;5840;46.894;15.542;2024-03-08T14:37:09;6.40;99.90
11569;DHT22;5840;46.894;15.542;2024-03-08T14:39:37;6.40;99.90
11569;DHT22;5840;46.894;15.542;2024-03-08T14:42:03;6.40;99.90
11569;DHT22;5840;46.894;15.542;2024-03-08T14:44:31;6.30;99.90
11569;DHT22;5840;46.894;15.542;2024-03-08T14:46:58;6.40;99.90
11569;DHT22;5840;46.894;15.542;2024-03-08T14:49:24;6.40;99.90
11569;DHT22;5840;46.894;15.542;2024-03-08T14:51:52;6.40;99.90
11569;DHT22;5840;46.894;15.542;2024-03-08T14:54:19;6.40;99.90
11569;DHT22;5840;46.894;15.542;2024-03-08T15:01:47;6.50;99.90
11569;DHT22;5840;46.894;15.542;2024-03-08T15:04:13;6.40;99.90
11569;DHT22;5840;46.894;15.542;2024-03-08T15:06:41;6.40;99.90
11569;DHT22;5840;46.894;15.542;2024-03-08T15:09:08;6.50;99.90
11569;DHT22;5840;46.894;15.542;2024-03-08T15:11:37;6.40;99.90
11569;DHT22;5840;46.894;15.542;2024-03-08T15:14:05;6.40;99.90
11569;DHT22;5840;46.894;15.542;2024-03-08T15:16:35;6.40;99.90
11569;DHT22;5840;46.894;15.542;2024-03-08T15:19:02;6.40;99.90
11569;DHT22;5840;46.894;15.542;2024-03-08T15:28:55;6.30;99.90
11569;DHT22;5840;46.894;15.542;2024-03-08T15:31:25;6.20;99.90
11569;DHT22;5840;46.894;15.542;2024-03-08T15:33:53;6.20;99.90
11569;DHT22;5840;46.894;15.542;2024-03-08T15:36:26;6.20;99.90
11569;DHT22;5840;46.894;15.542;2024-03-08T15:38:54;6.20;99.90
11569;DHT22;5840;46.894;15.542;2024-03-08T15:41:20;6.20;99.90
11569;DHT22;5840;46.894;15.542;2024-03-08T15:43:47;6.10;99.90
11569;DHT22;5840;46.894;15.542;2024-03-08T15:46:14;6.00;99.90
11569;DHT22;5840;46.894;15.542;2024-03-08T15:53:45;5.90;99.90
11569;DHT22;5840;46.894;15.542;2024-03-08T15:56:18;5.80;99.90
11569;DHT22;5840;46.894;15.542;2024-03-08T15:58:44;5.80;99.90
11569;DHT22;5840;46.894;15.542;2024-03-08T16:01:11;5.80;99.90
11569;DHT22;5840;46.894;15.542;2024-03-08T16:03:41;5.80;99.90
11569;DHT22;5840;46.894;15.542;2024-03-08T16:06:07;5.70;99.90
11569;DHT22;5840;46.894;15.542;2024-03-08T16:08:34;5.80;99.90
11569;DHT22;5840;46.894;15.542;2024-03-08T16:11:03;5.70;99.90
11569;DHT22;5840;46.894;15.542;2024-03-08T16:18:35;5.70;99.90
11569;DHT22;5840;46.894;15.542;2024-03-08T16:21:03;5.70;99.90
11569;DHT22;5840;46.894;15.542;2024-03-08T16:23:30;5.70;99.90
11569;DHT22;5840;46.894;15.542;2024-03-08T16:25:56;5.70;99.90
11569;DHT22;5840;46.894;15.542;2024-03-08T16:28:23;5.70;99.90
11569;DHT22;5840;46.894;15.542;2024-03-08T16:30:51;5.70;99.90
11569;DHT22;5840;46.894;15.542;2024-03-08T16:33:20;5.60;99.90
11569;DHT22;5840;46.894;15.542;2024-03-08T16:35:48;5.60;99.90
11569;DHT22;5840;46.894;15.542;2024-03-08T16:45:43;5.50;99.90
11569;DHT22;5840;46.894;15.542;2024-03-08T16:48:10;5.40;99.90
11569;DHT22;5840;46.894;15.542;2024-03-08T16:50:36;5.40;99.90
11569;DHT22;5840;46.894;15.542;2024-03-08T16:53:03;5.40;99.90
11569;DHT22;5840;46.894;15.542;2024-03-08T16:55:30;5.40;99.90
11569;DHT22;5840;46.894;15.542;2024-03-08T16:57:57;5.40;99.90
11569;DHT22;5840;46.894;15.542;2024-03-08T17:00:25;5.40;99.90
11569;DHT22;5840;46.894;15.542;2024-03-08T17:02:56;5.30;99.90
11569;DHT22;5840;46.894;15.542;2024-03-08T17:12:52;5.30;99.90
11569;DHT22;5840;46.894;15.542;2024-03-08T17:15:20;5.30;99.90
11569;DHT22;5840;46.894;15.542;2024-03-08T17:17:48;5.20;99.90
11569;DHT22;5840;46.894;15.542;2024-03-08T17:20:15;5.20;99.90
11569;DHT22;5840;46.894;15.542;2024-03-08T17:22:48;5.20;99.90
11569;DHT22;5840;46.894;15.542;2024-03-08T17:25:14;5.20;99.90
11569;DHT22;5840;46.894;15.542;2024-03-08T17:27:42;5.20;99.90
11569;DHT22;5840;46.894;15.542;2024-03-08T17:30:13;5.20;99.90
11569;DHT22;5840;46.894;15.542;2024-03-08T17:37:51;5.10;99.90
11569;DHT22;5840;46.894;15.542;2024-03-08T17:40:19;5.10;99.90
11569;DHT22;5840;46.894;15.542;2024-03-08T17:42:49;5.10;99.90
11569;DHT22;5840;46.894;15.542;2024-03-08T17:45:16;5.10;99.90
11569;DHT22;5840;46.894;15.542;2024-03-08T17:47:43;5.10;99.90
11569;DHT22;5840;46.894;15.542;2024-03-08T17:50:11;5.10;99.90
11569;DHT22;5840;46.894;15.542;2024-03-08T17:52:40;5.10;99.90
11569;DHT22;5840;46.894;15.542;2024-03-08T17:55:09;5.10;99.90
11569;DHT22;5840;46.894;15.542;2024-03-08T18:02:42;5.10;99.90
11569;DHT22;5840;46.894;15.542;2024-03-08T18:05:09;5.00;99.90
11569;DHT22;5840;46.894;15.542;2024-03-08T18:07:39;5.00;99.90
11569;DHT22;5840;46.894;15.542;2024-03-08T18:10:06;5.00;99.90
11569;DHT22;5840;46.894;15.542;2024-03-08T18:12:33;4.90;99.90
11569;DHT22;5840;46.894;15.542;2024-03-08T18:15:00;4.90;99.90
11569;DHT22;5840;46.894;15.542;2024-03-08T18:17:26;4.90;99.90
11569;DHT22;5840;46.894;15.542;2024-03-08T18:19:54;4.90;99.90
11569;DHT22;5840;46.894;15.542;2024-03-08T18:29:50;4.90;99.90
11569;DHT22;5840;46.894;15.542;2024-03-08T18:32:17;4.80;99.90
11569;DHT22;5840;46.894;15.542;2024-03-08T18:34:45;4.90;99.90
11569;DHT22;5840;46.894;15.542;2024-03-08T18:37:11;4.80;99.90
11569;DHT22;5840;46.894;15.542;2024-03-08T18:39:38;4.80;99.90
11569;DHT22;5840;46.894;15.542;2024-03-08T18:42:05;4.90;99.90
11569;DHT22;5840;46.894;15.542;2024-03-08T18:44:31;4.90;99.90
11569;DHT22;5840;46.894;15.542;2024-03-08T18:46:58;4.90;99.90
11569;DHT22;5840;46.894;15.542;2024-03-08T18:54:30;4.90;99.90
11569;DHT22;5840;46.894;15.542;2024-03-08T18:56:56;4.90;99.90
11569;DHT22;5840;46.894;15.542;2024-03-08T18:59:23;4.90;99.90
11569;DHT22;5840;46.894;15.542;2024-03-08T19:01:52;5.00;99.90
11569;DHT22;5840;46.894;15.542;2024-03-08T19:04:18;4.90;99.90
11569;DHT22;5840;46.894;15.542;2024-03-08T19:06:44;4.90;99.90
11569;DHT22;5840;46.894;15.542;2024-03-08T19:09:15;4.90;99.90
11569;DHT22;5840;46.894;15.542;2024-03-08T19:11:43;4.90;99.90
11569;DHT22;5840;46.894;15.542;2024-03-08T19:19:13;4.90;99.90
11569;DHT22;5840;46.894;15.542;2024-03-08T19:21:39;4.90;99.90
11569;DHT22;5840;46.894;15.542;2024-03-08T19:24:06;4.90;99.90
11569;DHT22;5840;46.894;15.542;2024-03-08T19:26:33;4.90;99.90
11569;DHT22;5840;46.894;15.542;2024-03-08T19:29:00;4.90;99.90
11569;DHT22;5840;46.894;15.542;2024-03-08T19:31:27;4.90;99.90
11569;DHT22;5840;46.894;15.542;2024-03-08T19:33:54;4.90;99.90
11569;DHT22;5840;46.894;15.542;2024-03-08T19:36:23;4.90;99.90
11569;DHT22;5840;46.894;15.542;2024-03-08T19:46:17;4.90;99.90
11569;DHT22;5840;46.894;15.542;2024-03-08T19:48:44;4.90;99.90
11569;DHT22;5840;46.894;15.542;2024-03-08T19:51:10;4.90;99.90
11569;DHT22;5840;46.894;15.542;2024-03-08T19:53:38;4.80;99.90
11569;DHT22;5840;46.894;15.542;2024-03-08T19:56:05;4.80;99.90
11569;DHT22;5840;46.894;15.542;2024-03-08T19:58:31;4.80;99.90
11569;DHT22;5840;46.894;15.542;2024-03-08T20:00:57;4.80;99.90
11569;DHT22;5840;46.894;15.542;2024-03-08T20:03:25;4.80;99.90
11569;DHT22;5840;46.894;15.542;2024-03-08T20:13:18;4.80;99.90
11569;DHT22;5840;46.894;15.542;2024-03-08T20:15:44;4.80;99.90
11569;DHT22;5840;46.894;15.542;2024-03-08T20:18:13;4.80;99.90
11569;DHT22;5840;46.894;15.542;2024-03-08T20:20:40;4.90;99.90
11569;DHT22;5840;46.894;15.542;2024-03-08T20:23:08;4.80;99.90